sensor_id;sensor_type;location;lat;lon;timestamp;P1;durP1;ratioP1;P2;durP2;ratioP2
74808;SDS011;63338;39.544;2.596;2022-09-21T00:00:46;3.75;;;1.75;;
74808;SDS011;63338;39.544;2.596;2022-09-21T00:03:13;5.35;;;1.50;;
74808;SDS011;63338;39.544;2.596;2022-09-21T00:05:39;5.18;;;1.42;;
74808;SDS011;63338;39.544;2.596;2022-09-21T00:08:06;4.32;;;1.85;;
74808;SDS011;63338;39.544;2.596;2022-09-21T00:10:33;4.53;;;1.80;;
74808;SDS011;63338;39.544;2.596;2022-09-21T00:12:59;3.38;;;1.50;;
74808;SDS011;63338;39.544;2.596;2022-09-21T00:15:27;3.38;;;1.42;;
74808;SDS011;63338;39.544;2.596;2022-09-21T00:17:55;3.60;;;1.60;;
74808;SDS011;63338;39.544;2.596;2022-09-21T00:20:22;4.65;;;1.40;;
74808;SDS011;63338;39.544;2.596;2022-09-21T00:22:49;3.42;;;1.30;;
74808;SDS011;63338;39.544;2.596;2022-09-21T00:25:16;2.80;;;1.30;;
74808;SDS011;63338;39.544;2.596;2022-09-21T00:27:43;4.15;;;1.60;;
74808;SDS011;63338;39.544;2.596;2022-09-21T00:30:15;4.53;;;1.60;;
74808;SDS011;63338;39.544;2.596;2022-09-21T00:32:42;4.40;;;1.40;;
74808;SDS011;63338;39.544;2.596;2022-09-21T00:35:08;3.88;;;1.50;;
74808;SDS011;63338;39.544;2.596;2022-09-21T00:37:34;4.43;;;1.33;;
74808;SDS011;63338;39.544;2.596;2022-09-21T00:40:01;4.03;;;1.25;;
74808;SDS011;63338;39.544;2.596;2022-09-21T00:42:29;4.70;;;1.70;;
74808;SDS011;63338;39.544;2.596;2022-09-21T00:44:57;3.08;;;1.30;;
74808;SDS011;63338;39.544;2.596;2022-09-21T00:49:58;3.30;;;1.23;;
74808;SDS011;63338;39.544;2.596;2022-09-21T00:52:27;3.45;;;1.52;;
74808;SDS011;63338;39.544;2.596;2022-09-21T00:55:08;2.70;;;1.30;;
74808;SDS011;63338;39.544;2.596;2022-09-21T00:57:43;2.70;;;1.10;;
74808;SDS011;63338;39.544;2.596;2022-09-21T01:00:15;3.45;;;1.30;;
74808;SDS011;63338;39.544;2.596;2022-09-21T01:02:42;3.95;;;1.45;;
74808;SDS011;63338;39.544;2.596;2022-09-21T01:05:10;2.83;;;1.20;;
74808;SDS011;63338;39.544;2.596;2022-09-21T01:07:37;3.45;;;1.33;;
74808;SDS011;63338;39.544;2.596;2022-09-21T01:10:07;2.60;;;1.10;;
74808;SDS011;63338;39.544;2.596;2022-09-21T01:34:37;2.97;;;1.13;;
74808;SDS011;63338;39.544;2.596;2022-09-21T01:37:13;3.13;;;1.13;;
74808;SDS011;63338;39.544;2.596;2022-09-21T01:39:44;2.88;;;1.13;;
74808;SDS011;63338;39.544;2.596;2022-09-21T01:42:15;4.15;;;1.33;;
74808;SDS011;63338;39.544;2.596;2022-09-21T01:44:44;2.28;;;1.00;;
74808;SDS011;63338;39.544;2.596;2022-09-21T01:47:12;3.85;;;1.20;;
74808;SDS011;63338;39.544;2.596;2022-09-21T01:49:43;2.97;;;1.10;;
74808;SDS011;63338;39.544;2.596;2022-09-21T01:54:48;2.83;;;1.27;;
74808;SDS011;63338;39.544;2.596;2022-09-21T02:00:05;2.72;;;1.00;;
74808;SDS011;63338;39.544;2.596;2022-09-21T02:02:39;3.55;;;1.15;;
74808;SDS011;63338;39.544;2.596;2022-09-21T02:05:11;2.83;;;1.20;;
74808;SDS011;63338;39.544;2.596;2022-09-21T02:07:40;2.58;;;1.00;;
74808;SDS011;63338;39.544;2.596;2022-09-21T02:10:07;3.00;;;1.02;;
74808;SDS011;63338;39.544;2.596;2022-09-21T02:12:39;2.13;;;0.93;;
74808;SDS011;63338;39.544;2.596;2022-09-21T02:15:05;2.67;;;0.98;;
74808;SDS011;63338;39.544;2.596;2022-09-21T02:25:45;2.38;;;1.05;;
74808;SDS011;63338;39.544;2.596;2022-09-21T02:28:12;2.40;;;0.82;;
74808;SDS011;63338;39.544;2.596;2022-09-21T02:30:46;2.13;;;0.90;;
74808;SDS011;63338;39.544;2.596;2022-09-21T02:33:40;2.80;;;0.88;;
74808;SDS011;63338;39.544;2.596;2022-09-21T02:37:01;2.35;;;0.90;;
74808;SDS011;63338;39.544;2.596;2022-09-21T02:42:17;3.15;;;1.25;;
74808;SDS011;63338;39.544;2.596;2022-09-21T02:45:50;2.35;;;0.90;;
74808;SDS011;63338;39.544;2.596;2022-09-21T02:48:03;2.35;;;0.88;;
74808;SDS011;63338;39.544;2.596;2022-09-21T02:50:50;2.13;;;0.82;;
74808;SDS011;63338;39.544;2.596;2022-09-21T02:53:29;2.78;;;1.10;;
74808;SDS011;63338;39.544;2.596;2022-09-21T02:55:59;2.30;;;0.90;;
74808;SDS011;63338;39.544;2.596;2022-09-21T02:58:33;2.50;;;0.85;;
74808;SDS011;63338;39.544;2.596;2022-09-21T03:01:03;2.65;;;0.90;;
74808;SDS011;63338;39.544;2.596;2022-09-21T03:03:31;2.40;;;0.90;;
74808;SDS011;63338;39.544;2.596;2022-09-21T03:05:57;1.50;;;0.70;;
74808;SDS011;63338;39.544;2.596;2022-09-21T03:08:24;2.03;;;0.82;;
74808;SDS011;63338;39.544;2.596;2022-09-21T03:10:50;1.83;;;0.90;;
74808;SDS011;63338;39.544;2.596;2022-09-21T03:13:16;2.22;;;0.80;;
74808;SDS011;63338;39.544;2.596;2022-09-21T03:15:43;1.88;;;0.80;;
74808;SDS011;63338;39.544;2.596;2022-09-21T03:18:09;2.28;;;0.80;;
74808;SDS011;63338;39.544;2.596;2022-09-21T03:20:38;2.22;;;0.85;;
74808;SDS011;63338;39.544;2.596;2022-09-21T03:23:05;2.60;;;0.88;;
74808;SDS011;63338;39.544;2.596;2022-09-21T03:25:32;2.00;;;0.80;;
74808;SDS011;63338;39.544;2.596;2022-09-21T03:27:58;1.02;;;0.50;;
74808;SDS011;63338;39.544;2.596;2022-09-21T03:30:25;1.83;;;0.75;;
74808;SDS011;63338;39.544;2.596;2022-09-21T03:32:51;1.77;;;0.70;;
74808;SDS011;63338;39.544;2.596;2022-09-21T03:35:18;1.98;;;0.70;;
74808;SDS011;63338;39.544;2.596;2022-09-21T03:37:46;1.90;;;0.80;;
74808;SDS011;63338;39.544;2.596;2022-09-21T03:40:13;1.75;;;0.70;;
74808;SDS011;63338;39.544;2.596;2022-09-21T03:42:41;2.13;;;0.70;;
74808;SDS011;63338;39.544;2.596;2022-09-21T03:45:09;1.88;;;0.70;;
74808;SDS011;63338;39.544;2.596;2022-09-21T03:47:36;1.80;;;0.70;;
74808;SDS011;63338;39.544;2.596;2022-09-21T03:50:04;2.00;;;0.77;;
74808;SDS011;63338;39.544;2.596;2022-09-21T03:52:31;1.33;;;0.55;;
74808;SDS011;63338;39.544;2.596;2022-09-21T03:54:57;2.00;;;0.70;;
74808;SDS011;63338;39.544;2.596;2022-09-21T03:57:23;1.75;;;0.70;;
74808;SDS011;63338;39.544;2.596;2022-09-21T03:59:49;1.98;;;0.70;;
74808;SDS011;63338;39.544;2.596;2022-09-21T04:02:17;2.35;;;0.77;;
74808;SDS011;63338;39.544;2.596;2022-09-21T04:04:43;2.35;;;0.90;;
74808;SDS011;63338;39.544;2.596;2022-09-21T04:07:09;1.83;;;0.70;;
74808;SDS011;63338;39.544;2.596;2022-09-21T04:09:35;1.70;;;0.77;;
74808;SDS011;63338;39.544;2.596;2022-09-21T04:12:01;1.73;;;0.70;;
74808;SDS011;63338;39.544;2.596;2022-09-21T04:14:27;1.48;;;0.60;;
74808;SDS011;63338;39.544;2.596;2022-09-21T04:16:54;1.20;;;0.57;;
74808;SDS011;63338;39.544;2.596;2022-09-21T04:19:20;2.53;;;0.90;;
74808;SDS011;63338;39.544;2.596;2022-09-21T04:21:47;1.75;;;0.70;;
74808;SDS011;63338;39.544;2.596;2022-09-21T04:24:16;1.65;;;0.60;;
74808;SDS011;63338;39.544;2.596;2022-09-21T04:26:43;1.60;;;0.50;;
74808;SDS011;63338;39.544;2.596;2022-09-21T04:29:11;1.27;;;0.55;;
74808;SDS011;63338;39.544;2.596;2022-09-21T04:31:37;1.73;;;0.75;;
74808;SDS011;63338;39.544;2.596;2022-09-21T04:34:04;2.22;;;0.60;;
74808;SDS011;63338;39.544;2.596;2022-09-21T04:36:30;1.73;;;0.80;;
74808;SDS011;63338;39.544;2.596;2022-09-21T04:38:57;1.65;;;0.60;;
74808;SDS011;63338;39.544;2.596;2022-09-21T04:41:26;1.20;;;0.52;;
74808;SDS011;63338;39.544;2.596;2022-09-21T04:43:52;1.38;;;0.55;;
74808;SDS011;63338;39.544;2.596;2022-09-21T04:46:18;1.88;;;0.68;;
74808;SDS011;63338;39.544;2.596;2022-09-21T04:48:45;1.45;;;0.57;;
74808;SDS011;63338;39.544;2.596;2022-09-21T04:51:12;1.63;;;0.70;;
74808;SDS011;63338;39.544;2.596;2022-09-21T04:53:39;2.58;;;0.85;;
74808;SDS011;63338;39.544;2.596;2022-09-21T04:56:07;1.48;;;0.50;;
74808;SDS011;63338;39.544;2.596;2022-09-21T04:58:34;2.50;;;0.85;;
74808;SDS011;63338;39.544;2.596;2022-09-21T05:01:00;2.25;;;0.80;;
74808;SDS011;63338;39.544;2.596;2022-09-21T05:03:28;1.88;;;0.70;;
74808;SDS011;63338;39.544;2.596;2022-09-21T05:05:55;1.23;;;0.52;;
74808;SDS011;63338;39.544;2.596;2022-09-21T05:08:22;2.97;;;0.80;;
74808;SDS011;63338;39.544;2.596;2022-09-21T05:11:09;1.95;;;0.68;;
74808;SDS011;63338;39.544;2.596;2022-09-21T05:13:38;1.50;;;0.52;;
74808;SDS011;63338;39.544;2.596;2022-09-21T05:16:05;2.47;;;0.80;;
74808;SDS011;63338;39.544;2.596;2022-09-21T05:18:31;1.95;;;0.68;;
74808;SDS011;63338;39.544;2.596;2022-09-21T05:20:58;1.13;;;0.50;;
74808;SDS011;63338;39.544;2.596;2022-09-21T05:23:25;0.70;;;0.40;;
74808;SDS011;63338;39.544;2.596;2022-09-21T05:25:54;1.52;;;0.60;;
74808;SDS011;63338;39.544;2.596;2022-09-21T05:28:20;1.63;;;0.55;;
74808;SDS011;63338;39.544;2.596;2022-09-21T05:33:25;1.95;;;0.60;;
74808;SDS011;63338;39.544;2.596;2022-09-21T05:38:55;1.67;;;0.50;;
74808;SDS011;63338;39.544;2.596;2022-09-21T05:41:22;1.25;;;0.60;;
74808;SDS011;63338;39.544;2.596;2022-09-21T05:43:48;1.17;;;0.47;;
74808;SDS011;63338;39.544;2.596;2022-09-21T05:46:18;1.30;;;0.60;;
74808;SDS011;63338;39.544;2.596;2022-09-21T05:49:02;1.10;;;0.40;;
74808;SDS011;63338;39.544;2.596;2022-09-21T05:54:37;2.85;;;0.50;;
74808;SDS011;63338;39.544;2.596;2022-09-21T05:57:18;2.75;;;0.60;;
74808;SDS011;63338;39.544;2.596;2022-09-21T06:00:04;1.60;;;0.50;;
74808;SDS011;63338;39.544;2.596;2022-09-21T06:05:42;1.83;;;0.65;;
74808;SDS011;63338;39.544;2.596;2022-09-21T06:08:09;2.85;;;0.60;;
74808;SDS011;63338;39.544;2.596;2022-09-21T06:10:35;2.63;;;0.60;;
74808;SDS011;63338;39.544;2.596;2022-09-21T06:13:01;1.83;;;0.70;;
74808;SDS011;63338;39.544;2.596;2022-09-21T06:15:27;1.77;;;0.77;;
74808;SDS011;63338;39.544;2.596;2022-09-21T06:17:53;1.88;;;0.60;;
74808;SDS011;63338;39.544;2.596;2022-09-21T06:20:19;1.35;;;0.50;;
74808;SDS011;63338;39.544;2.596;2022-09-21T06:22:45;2.10;;;0.80;;
74808;SDS011;63338;39.544;2.596;2022-09-21T06:25:11;1.55;;;0.60;;
74808;SDS011;63338;39.544;2.596;2022-09-21T06:27:37;2.60;;;0.80;;
74808;SDS011;63338;39.544;2.596;2022-09-21T06:30:03;3.00;;;0.75;;
74808;SDS011;63338;39.544;2.596;2022-09-21T06:32:30;1.58;;;0.73;;
74808;SDS011;63338;39.544;2.596;2022-09-21T06:34:56;2.78;;;0.70;;
74808;SDS011;63338;39.544;2.596;2022-09-21T06:37:22;2.35;;;0.70;;
74808;SDS011;63338;39.544;2.596;2022-09-21T06:39:48;2.05;;;0.70;;
74808;SDS011;63338;39.544;2.596;2022-09-21T06:42:14;2.03;;;0.63;;
74808;SDS011;63338;39.544;2.596;2022-09-21T06:44:40;1.77;;;0.70;;
74808;SDS011;63338;39.544;2.596;2022-09-21T06:47:06;1.85;;;0.60;;
74808;SDS011;63338;39.544;2.596;2022-09-21T06:49:32;4.53;;;0.90;;
74808;SDS011;63338;39.544;2.596;2022-09-21T06:51:58;2.63;;;0.77;;
74808;SDS011;63338;39.544;2.596;2022-09-21T06:54:25;2.08;;;0.52;;
74808;SDS011;63338;39.544;2.596;2022-09-21T06:56:51;1.25;;;0.45;;
74808;SDS011;63338;39.544;2.596;2022-09-21T06:59:17;1.60;;;0.50;;
74808;SDS011;63338;39.544;2.596;2022-09-21T07:01:43;2.90;;;0.60;;
74808;SDS011;63338;39.544;2.596;2022-09-21T07:04:09;3.47;;;0.70;;
74808;SDS011;63338;39.544;2.596;2022-09-21T07:06:35;1.60;;;0.65;;
74808;SDS011;63338;39.544;2.596;2022-09-21T07:09:01;2.30;;;0.73;;
74808;SDS011;63338;39.544;2.596;2022-09-21T07:11:27;1.85;;;0.70;;
74808;SDS011;63338;39.544;2.596;2022-09-21T07:13:53;3.33;;;0.70;;
74808;SDS011;63338;39.544;2.596;2022-09-21T07:16:20;2.03;;;0.65;;
74808;SDS011;63338;39.544;2.596;2022-09-21T07:18:49;2.85;;;0.90;;
74808;SDS011;63338;39.544;2.596;2022-09-21T07:21:15;3.55;;;0.60;;
74808;SDS011;63338;39.544;2.596;2022-09-21T07:23:41;1.92;;;0.70;;
74808;SDS011;63338;39.544;2.596;2022-09-21T07:26:08;2.90;;;0.95;;
74808;SDS011;63338;39.544;2.596;2022-09-21T07:28:36;2.95;;;0.80;;
74808;SDS011;63338;39.544;2.596;2022-09-21T07:31:10;2.95;;;0.73;;
74808;SDS011;63338;39.544;2.596;2022-09-21T07:33:38;1.35;;;0.55;;
74808;SDS011;63338;39.544;2.596;2022-09-21T07:36:05;1.88;;;0.70;;
74808;SDS011;63338;39.544;2.596;2022-09-21T07:38:35;1.50;;;0.50;;
74808;SDS011;63338;39.544;2.596;2022-09-21T07:41:03;2.13;;;0.73;;
74808;SDS011;63338;39.544;2.596;2022-09-21T07:43:31;1.52;;;0.50;;
74808;SDS011;63338;39.544;2.596;2022-09-21T07:45:58;2.40;;;0.70;;
74808;SDS011;63338;39.544;2.596;2022-09-21T07:48:26;1.83;;;0.70;;
74808;SDS011;63338;39.544;2.596;2022-09-21T07:50:53;2.63;;;0.65;;
74808;SDS011;63338;39.544;2.596;2022-09-21T07:53:21;1.63;;;0.63;;
74808;SDS011;63338;39.544;2.596;2022-09-21T07:55:47;2.38;;;0.82;;
74808;SDS011;63338;39.544;2.596;2022-09-21T07:58:13;1.50;;;0.50;;
74808;SDS011;63338;39.544;2.596;2022-09-21T08:00:58;1.83;;;0.70;;
74808;SDS011;63338;39.544;2.596;2022-09-21T08:03:30;2.63;;;0.75;;
74808;SDS011;63338;39.544;2.596;2022-09-21T08:05:57;2.75;;;0.70;;
74808;SDS011;63338;39.544;2.596;2022-09-21T08:08:23;2.10;;;0.90;;
74808;SDS011;63338;39.544;2.596;2022-09-21T08:10:50;2.47;;;0.70;;
74808;SDS011;63338;39.544;2.596;2022-09-21T08:13:18;1.58;;;0.60;;
74808;SDS011;63338;39.544;2.596;2022-09-21T08:15:44;1.83;;;0.80;;
74808;SDS011;63338;39.544;2.596;2022-09-21T08:18:11;1.77;;;0.60;;
74808;SDS011;63338;39.544;2.596;2022-09-21T08:20:37;2.20;;;0.60;;
74808;SDS011;63338;39.544;2.596;2022-09-21T08:23:03;2.28;;;0.80;;
74808;SDS011;63338;39.544;2.596;2022-09-21T08:25:29;1.98;;;0.80;;
74808;SDS011;63338;39.544;2.596;2022-09-21T08:27:56;1.77;;;0.70;;
74808;SDS011;63338;39.544;2.596;2022-09-21T08:30:24;2.90;;;0.70;;
74808;SDS011;63338;39.544;2.596;2022-09-21T08:32:53;3.90;;;0.82;;
74808;SDS011;63338;39.544;2.596;2022-09-21T08:35:19;2.53;;;0.80;;
74808;SDS011;63338;39.544;2.596;2022-09-21T08:37:45;3.00;;;0.88;;
74808;SDS011;63338;39.544;2.596;2022-09-21T08:40:12;1.73;;;0.73;;
74808;SDS011;63338;39.544;2.596;2022-09-21T08:42:43;2.28;;;0.60;;
74808;SDS011;63338;39.544;2.596;2022-09-21T08:45:34;3.17;;;0.90;;
74808;SDS011;63338;39.544;2.596;2022-09-21T08:48:09;3.80;;;0.90;;
74808;SDS011;63338;39.544;2.596;2022-09-21T08:50:45;1.63;;;0.75;;
74808;SDS011;63338;39.544;2.596;2022-09-21T08:53:19;2.95;;;0.90;;
74808;SDS011;63338;39.544;2.596;2022-09-21T08:56:00;1.65;;;0.65;;
74808;SDS011;63338;39.544;2.596;2022-09-21T08:58:28;2.95;;;0.70;;
74808;SDS011;63338;39.544;2.596;2022-09-21T09:06:23;2.08;;;0.70;;
74808;SDS011;63338;39.544;2.596;2022-09-21T09:09:13;3.00;;;0.98;;
74808;SDS011;63338;39.544;2.596;2022-09-21T09:14:57;2.85;;;1.00;;
74808;SDS011;63338;39.544;2.596;2022-09-21T09:20:20;2.10;;;0.70;;
74808;SDS011;63338;39.544;2.596;2022-09-21T09:25:45;1.98;;;0.80;;
74808;SDS011;63338;39.544;2.596;2022-09-21T09:30:51;1.98;;;0.77;;
74808;SDS011;63338;39.544;2.596;2022-09-21T09:33:47;3.10;;;0.90;;
74808;SDS011;63338;39.544;2.596;2022-09-21T09:36:20;2.72;;;0.82;;
74808;SDS011;63338;39.544;2.596;2022-09-21T09:38:59;3.63;;;0.80;;
74808;SDS011;63338;39.544;2.596;2022-09-21T09:41:44;3.05;;;0.93;;
74808;SDS011;63338;39.544;2.596;2022-09-21T09:50:44;2.30;;;0.93;;
74808;SDS011;63338;39.544;2.596;2022-09-21T09:52:58;3.33;;;1.10;;
74808;SDS011;63338;39.544;2.596;2022-09-21T09:55:34;2.20;;;0.85;;
74808;SDS011;63338;39.544;2.596;2022-09-21T10:01:06;2.25;;;0.85;;
74808;SDS011;63338;39.544;2.596;2022-09-21T10:03:33;3.65;;;1.25;;
74808;SDS011;63338;39.544;2.596;2022-09-21T10:06:00;2.72;;;0.95;;
74808;SDS011;63338;39.544;2.596;2022-09-21T10:10:55;2.28;;;0.90;;
74808;SDS011;63338;39.544;2.596;2022-09-21T10:13:28;2.40;;;1.00;;
74808;SDS011;63338;39.544;2.596;2022-09-21T10:16:21;2.60;;;0.80;;
74808;SDS011;63338;39.544;2.596;2022-09-21T10:18:49;2.05;;;0.90;;
74808;SDS011;63338;39.544;2.596;2022-09-21T10:24:00;2.28;;;0.90;;
74808;SDS011;63338;39.544;2.596;2022-09-21T10:26:52;2.88;;;0.93;;
74808;SDS011;63338;39.544;2.596;2022-09-21T10:29:27;2.85;;;1.00;;
74808;SDS011;63338;39.544;2.596;2022-09-21T10:31:56;2.13;;;0.90;;
74808;SDS011;63338;39.544;2.596;2022-09-21T10:34:31;2.05;;;1.00;;
74808;SDS011;63338;39.544;2.596;2022-09-21T10:36:59;1.70;;;0.73;;
74808;SDS011;63338;39.544;2.596;2022-09-21T10:39:28;2.13;;;0.90;;
74808;SDS011;63338;39.544;2.596;2022-09-21T10:42:09;2.25;;;0.80;;
74808;SDS011;63338;39.544;2.596;2022-09-21T10:44:42;2.10;;;0.73;;
74808;SDS011;63338;39.544;2.596;2022-09-21T10:49:56;2.33;;;0.80;;
74808;SDS011;63338;39.544;2.596;2022-09-21T10:52:32;2.55;;;0.93;;
74808;SDS011;63338;39.544;2.596;2022-09-21T10:55:00;3.13;;;1.00;;
74808;SDS011;63338;39.544;2.596;2022-09-21T10:57:26;2.10;;;1.00;;
74808;SDS011;63338;39.544;2.596;2022-09-21T10:59:53;2.33;;;0.80;;
74808;SDS011;63338;39.544;2.596;2022-09-21T11:02:26;1.80;;;0.80;;
74808;SDS011;63338;39.544;2.596;2022-09-21T11:05:14;3.05;;;1.00;;
74808;SDS011;63338;39.544;2.596;2022-09-21T11:11:06;2.70;;;0.82;;
74808;SDS011;63338;39.544;2.596;2022-09-21T11:13:55;2.25;;;0.82;;
74808;SDS011;63338;39.544;2.596;2022-09-21T11:16:27;2.13;;;0.77;;
74808;SDS011;63338;39.544;2.596;2022-09-21T11:21:45;2.20;;;0.90;;
74808;SDS011;63338;39.544;2.596;2022-09-21T11:27:05;1.85;;;0.80;;
74808;SDS011;63338;39.544;2.596;2022-09-21T11:29:56;3.47;;;0.80;;
74808;SDS011;63338;39.544;2.596;2022-09-21T11:40:43;2.40;;;0.95;;
74808;SDS011;63338;39.544;2.596;2022-09-21T11:54:12;3.03;;;0.88;;
74808;SDS011;63338;39.544;2.596;2022-09-21T12:04:54;1.88;;;0.80;;
74808;SDS011;63338;39.544;2.596;2022-09-21T12:21:40;1.83;;;0.70;;
74808;SDS011;63338;39.544;2.596;2022-09-21T12:24:19;2.15;;;0.90;;
74808;SDS011;63338;39.544;2.596;2022-09-21T12:26:49;2.00;;;0.90;;
74808;SDS011;63338;39.544;2.596;2022-09-21T12:29:19;2.30;;;1.00;;
74808;SDS011;63338;39.544;2.596;2022-09-21T12:34:54;2.58;;;1.10;;
74808;SDS011;63338;39.544;2.596;2022-09-21T12:37:41;2.80;;;0.90;;
74808;SDS011;63338;39.544;2.596;2022-09-21T12:40:36;3.40;;;1.00;;
74808;SDS011;63338;39.544;2.596;2022-09-21T12:48:36;1.80;;;0.88;;
74808;SDS011;63338;39.544;2.596;2022-09-21T12:53:46;2.83;;;1.00;;
74808;SDS011;63338;39.544;2.596;2022-09-21T13:09:16;3.00;;;0.80;;
74808;SDS011;63338;39.544;2.596;2022-09-21T13:11:54;3.17;;;1.00;;
74808;SDS011;63338;39.544;2.596;2022-09-21T13:14:31;4.22;;;1.20;;
74808;SDS011;63338;39.544;2.596;2022-09-21T13:17:01;3.47;;;1.00;;
74808;SDS011;63338;39.544;2.596;2022-09-21T13:19:30;2.80;;;0.80;;
74808;SDS011;63338;39.544;2.596;2022-09-21T13:30:39;2.58;;;0.93;;
74808;SDS011;63338;39.544;2.596;2022-09-21T13:38:32;3.40;;;1.08;;
74808;SDS011;63338;39.544;2.596;2022-09-21T13:43:46;2.88;;;0.80;;
74808;SDS011;63338;39.544;2.596;2022-09-21T13:49:02;3.45;;;1.10;;
74808;SDS011;63338;39.544;2.596;2022-09-21T13:54:23;2.13;;;0.93;;
74808;SDS011;63338;39.544;2.596;2022-09-21T13:59:47;2.80;;;1.08;;
74808;SDS011;63338;39.544;2.596;2022-09-21T14:02:31;3.22;;;1.00;;
74808;SDS011;63338;39.544;2.596;2022-09-21T14:05:07;3.08;;;0.95;;
74808;SDS011;63338;39.544;2.596;2022-09-21T14:07:35;2.95;;;1.10;;
74808;SDS011;63338;39.544;2.596;2022-09-21T14:10:04;2.20;;;1.00;;
74808;SDS011;63338;39.544;2.596;2022-09-21T14:12:33;3.25;;;0.88;;
74808;SDS011;63338;39.544;2.596;2022-09-21T14:15:46;3.70;;;0.93;;
74808;SDS011;63338;39.544;2.596;2022-09-21T14:29:23;3.10;;;1.00;;
74808;SDS011;63338;39.544;2.596;2022-09-21T14:32:10;2.53;;;0.88;;
74808;SDS011;63338;39.544;2.596;2022-09-21T14:34:48;2.30;;;0.88;;
74808;SDS011;63338;39.544;2.596;2022-09-21T14:39:57;2.58;;;0.90;;
74808;SDS011;63338;39.544;2.596;2022-09-21T14:42:27;3.40;;;1.10;;
74808;SDS011;63338;39.544;2.596;2022-09-21T14:44:57;2.50;;;1.00;;
74808;SDS011;63338;39.544;2.596;2022-09-21T14:55:54;2.30;;;0.73;;
74808;SDS011;63338;39.544;2.596;2022-09-21T15:03:58;4.05;;;1.27;;
74808;SDS011;63338;39.544;2.596;2022-09-21T15:13:13;2.50;;;1.00;;
74808;SDS011;63338;39.544;2.596;2022-09-21T15:15:47;3.58;;;1.08;;
74808;SDS011;63338;39.544;2.596;2022-09-21T15:18:39;2.70;;;1.05;;
74808;SDS011;63338;39.544;2.596;2022-09-21T15:21:19;3.90;;;1.30;;
74808;SDS011;63338;39.544;2.596;2022-09-21T15:23:53;3.45;;;1.10;;
74808;SDS011;63338;39.544;2.596;2022-09-21T15:26:38;3.50;;;1.20;;
74808;SDS011;63338;39.544;2.596;2022-09-21T15:29:05;3.60;;;1.10;;
74808;SDS011;63338;39.544;2.596;2022-09-21T15:31:37;3.85;;;1.20;;
74808;SDS011;63338;39.544;2.596;2022-09-21T15:34:05;4.57;;;1.30;;
74808;SDS011;63338;39.544;2.596;2022-09-21T15:36:36;2.97;;;1.13;;
74808;SDS011;63338;39.544;2.596;2022-09-21T15:39:04;2.88;;;1.27;;
74808;SDS011;63338;39.544;2.596;2022-09-21T15:41:41;2.60;;;1.20;;
74808;SDS011;63338;39.544;2.596;2022-09-21T15:46:39;2.08;;;1.00;;
74808;SDS011;63338;39.544;2.596;2022-09-21T15:49:11;2.80;;;0.90;;
74808;SDS011;63338;39.544;2.596;2022-09-21T15:51:41;3.30;;;1.00;;
74808;SDS011;63338;39.544;2.596;2022-09-21T15:56:51;3.65;;;1.38;;
74808;SDS011;63338;39.544;2.596;2022-09-21T15:59:20;3.30;;;1.23;;
74808;SDS011;63338;39.544;2.596;2022-09-21T16:01:47;2.78;;;1.17;;
74808;SDS011;63338;39.544;2.596;2022-09-21T16:04:19;4.45;;;1.27;;
74808;SDS011;63338;39.544;2.596;2022-09-21T16:06:56;3.00;;;1.05;;
74808;SDS011;63338;39.544;2.596;2022-09-21T16:09:48;2.45;;;1.00;;
74808;SDS011;63338;39.544;2.596;2022-09-21T16:15:07;4.65;;;1.20;;
74808;SDS011;63338;39.544;2.596;2022-09-21T16:17:59;3.72;;;1.10;;
74808;SDS011;63338;39.544;2.596;2022-09-21T16:20:45;2.92;;;1.10;;
74808;SDS011;63338;39.544;2.596;2022-09-21T16:23:18;2.40;;;1.00;;
74808;SDS011;63338;39.544;2.596;2022-09-21T16:25:51;3.08;;;1.23;;
74808;SDS011;63338;39.544;2.596;2022-09-21T16:28:27;2.63;;;1.20;;
74808;SDS011;63338;39.544;2.596;2022-09-21T16:31:00;2.97;;;1.30;;
74808;SDS011;63338;39.544;2.596;2022-09-21T16:38:43;2.72;;;1.08;;
74808;SDS011;63338;39.544;2.596;2022-09-21T16:41:11;3.63;;;1.33;;
74808;SDS011;63338;39.544;2.596;2022-09-21T16:43:39;2.97;;;1.10;;
74808;SDS011;63338;39.544;2.596;2022-09-21T16:46:08;2.53;;;1.10;;
74808;SDS011;63338;39.544;2.596;2022-09-21T16:48:35;4.13;;;1.17;;
74808;SDS011;63338;39.544;2.596;2022-09-21T16:51:01;2.83;;;1.33;;
74808;SDS011;63338;39.544;2.596;2022-09-21T16:53:27;2.75;;;1.17;;
74808;SDS011;63338;39.544;2.596;2022-09-21T16:55:53;2.75;;;1.13;;
74808;SDS011;63338;39.544;2.596;2022-09-21T16:58:19;3.13;;;1.35;;
74808;SDS011;63338;39.544;2.596;2022-09-21T17:00:48;3.03;;;1.30;;
74808;SDS011;63338;39.544;2.596;2022-09-21T17:03:17;2.30;;;1.10;;
74808;SDS011;63338;39.544;2.596;2022-09-21T17:05:44;3.15;;;1.23;;
74808;SDS011;63338;39.544;2.596;2022-09-21T17:08:10;2.95;;;1.38;;
74808;SDS011;63338;39.544;2.596;2022-09-21T17:10:38;4.43;;;0.80;;
74808;SDS011;63338;39.544;2.596;2022-09-21T17:13:07;8.45;;;1.42;;
74808;SDS011;63338;39.544;2.596;2022-09-21T17:15:33;7.80;;;1.98;;
74808;SDS011;63338;39.544;2.596;2022-09-21T17:18:01;4.90;;;1.15;;
74808;SDS011;63338;39.544;2.596;2022-09-21T17:22:59;4.80;;;1.00;;
74808;SDS011;63338;39.544;2.596;2022-09-21T17:25:31;4.47;;;0.90;;
74808;SDS011;63338;39.544;2.596;2022-09-21T17:28:00;3.03;;;0.68;;
74808;SDS011;63338;39.544;2.596;2022-09-21T17:30:27;4.88;;;0.60;;
74808;SDS011;63338;39.544;2.596;2022-09-21T17:32:53;4.43;;;0.60;;
74808;SDS011;63338;39.544;2.596;2022-09-21T17:35:34;6.22;;;1.50;;
74808;SDS011;63338;39.544;2.596;2022-09-21T17:38:05;4.68;;;1.30;;
74808;SDS011;63338;39.544;2.596;2022-09-21T17:40:35;6.20;;;1.58;;
74808;SDS011;63338;39.544;2.596;2022-09-21T17:43:09;8.77;;;1.20;;
74808;SDS011;63338;39.544;2.596;2022-09-21T17:46:05;4.05;;;0.80;;
74808;SDS011;63338;39.544;2.596;2022-09-21T17:48:39;5.90;;;1.10;;
74808;SDS011;63338;39.544;2.596;2022-09-21T17:51:05;10.50;;;1.20;;
74808;SDS011;63338;39.544;2.596;2022-09-21T17:53:32;11.05;;;1.52;;
74808;SDS011;63338;39.544;2.596;2022-09-21T17:56:00;7.00;;;1.40;;
74808;SDS011;63338;39.544;2.596;2022-09-21T17:59:14;11.02;;;1.70;;
74808;SDS011;63338;39.544;2.596;2022-09-21T18:01:32;13.52;;;1.63;;
74808;SDS011;63338;39.544;2.596;2022-09-21T18:04:00;6.30;;;1.50;;
74808;SDS011;63338;39.544;2.596;2022-09-21T18:06:27;7.82;;;1.30;;
74808;SDS011;63338;39.544;2.596;2022-09-21T18:08:54;5.57;;;1.50;;
74808;SDS011;63338;39.544;2.596;2022-09-21T18:22:13;3.78;;;1.35;;
74808;SDS011;63338;39.544;2.596;2022-09-21T18:24:50;6.65;;;1.38;;
74808;SDS011;63338;39.544;2.596;2022-09-21T18:27:18;8.05;;;1.52;;
74808;SDS011;63338;39.544;2.596;2022-09-21T18:29:47;3.58;;;1.05;;
74808;SDS011;63338;39.544;2.596;2022-09-21T18:37:41;9.32;;;2.55;;
74808;SDS011;63338;39.544;2.596;2022-09-21T18:46:05;7.72;;;2.40;;
74808;SDS011;63338;39.544;2.596;2022-09-21T18:52:20;5.55;;;2.45;;
74808;SDS011;63338;39.544;2.596;2022-09-21T18:54:58;6.88;;;2.13;;
74808;SDS011;63338;39.544;2.596;2022-09-21T18:57:24;11.90;;;4.57;;
74808;SDS011;63338;39.544;2.596;2022-09-21T18:59:50;8.00;;;2.63;;
74808;SDS011;63338;39.544;2.596;2022-09-21T19:02:18;5.65;;;1.50;;
74808;SDS011;63338;39.544;2.596;2022-09-21T19:04:44;5.40;;;2.00;;
74808;SDS011;63338;39.544;2.596;2022-09-21T19:14:56;23.50;;;11.23;;
74808;SDS011;63338;39.544;2.596;2022-09-21T19:17:35;9.73;;;4.30;;
74808;SDS011;63338;39.544;2.596;2022-09-21T19:25:47;6.28;;;1.90;;
74808;SDS011;63338;39.544;2.596;2022-09-21T19:31:08;3.58;;;1.27;;
74808;SDS011;63338;39.544;2.596;2022-09-21T19:33:36;3.17;;;1.17;;
74808;SDS011;63338;39.544;2.596;2022-09-21T19:36:02;5.00;;;1.42;;
74808;SDS011;63338;39.544;2.596;2022-09-21T19:38:29;4.25;;;1.42;;
74808;SDS011;63338;39.544;2.596;2022-09-21T19:40:59;4.57;;;1.33;;
74808;SDS011;63338;39.544;2.596;2022-09-21T19:43:46;3.88;;;1.10;;
74808;SDS011;63338;39.544;2.596;2022-09-21T19:49:21;6.22;;;1.50;;
74808;SDS011;63338;39.544;2.596;2022-09-21T19:54:21;5.30;;;1.63;;